sensor_id;sensor_type;location;lat;lon;timestamp;P1;durP1;ratioP1;P2;durP2;ratioP2
45338;SDS011;31071;51.478;5.710;2022-09-27T00:01:02;9.30;;;3.50;;
45338;SDS011;31071;51.478;5.710;2022-09-27T00:03:29;9.15;;;3.22;;
45338;SDS011;31071;51.478;5.710;2022-09-27T00:06:02;14.20;;;3.28;;
45338;SDS011;31071;51.478;5.710;2022-09-27T00:08:30;14.20;;;3.72;;
45338;SDS011;31071;51.478;5.710;2022-09-27T00:11:00;11.45;;;3.30;;
45338;SDS011;31071;51.478;5.710;2022-09-27T00:13:27;13.05;;;3.67;;
45338;SDS011;31071;51.478;5.710;2022-09-27T00:15:57;8.23;;;3.63;;
45338;SDS011;31071;51.478;5.710;2022-09-27T00:18:24;14.00;;;4.13;;
45338;SDS011;31071;51.478;5.710;2022-09-27T00:20:49;12.50;;;3.90;;
45338;SDS011;31071;51.478;5.710;2022-09-27T00:23:15;13.43;;;3.83;;
45338;SDS011;31071;51.478;5.710;2022-09-27T00:25:41;17.92;;;3.53;;
45338;SDS011;31071;51.478;5.710;2022-09-27T00:28:07;16.08;;;4.20;;
45338;SDS011;31071;51.478;5.710;2022-09-27T00:30:33;13.80;;;4.35;;
45338;SDS011;31071;51.478;5.710;2022-09-27T00:32:58;11.18;;;4.30;;
45338;SDS011;31071;51.478;5.710;2022-09-27T00:35:24;10.90;;;4.55;;
45338;SDS011;31071;51.478;5.710;2022-09-27T00:37:49;11.68;;;5.10;;
45338;SDS011;31071;51.478;5.710;2022-09-27T00:40:15;15.02;;;4.57;;
45338;SDS011;31071;51.478;5.710;2022-09-27T00:42:41;16.08;;;4.20;;
45338;SDS011;31071;51.478;5.710;2022-09-27T00:45:11;11.98;;;4.32;;
45338;SDS011;31071;51.478;5.710;2022-09-27T00:47:49;8.93;;;4.43;;
45338;SDS011;31071;51.478;5.710;2022-09-27T00:50:40;9.52;;;3.97;;
45338;SDS011;31071;51.478;5.710;2022-09-27T00:53:21;7.47;;;3.78;;
45338;SDS011;31071;51.478;5.710;2022-09-27T00:55:53;9.23;;;3.13;;
45338;SDS011;31071;51.478;5.710;2022-09-27T00:58:22;15.75;;;3.40;;
45338;SDS011;31071;51.478;5.710;2022-09-27T01:00:53;8.10;;;2.53;;
45338;SDS011;31071;51.478;5.710;2022-09-27T01:03:24;5.88;;;2.40;;
45338;SDS011;31071;51.478;5.710;2022-09-27T01:05:56;10.13;;;2.40;;
45338;SDS011;31071;51.478;5.710;2022-09-27T01:08:23;7.43;;;2.55;;
45338;SDS011;31071;51.478;5.710;2022-09-27T01:11:03;7.88;;;2.50;;
45338;SDS011;31071;51.478;5.710;2022-09-27T01:19:41;11.02;;;2.08;;
45338;SDS011;31071;51.478;5.710;2022-09-27T01:22:17;8.48;;;2.20;;
45338;SDS011;31071;51.478;5.710;2022-09-27T01:25:01;7.78;;;1.70;;
45338;SDS011;31071;51.478;5.710;2022-09-27T01:28:01;8.32;;;1.90;;
45338;SDS011;31071;51.478;5.710;2022-09-27T01:30:42;5.50;;;1.45;;
45338;SDS011;31071;51.478;5.710;2022-09-27T01:33:30;5.55;;;1.02;;
45338;SDS011;31071;51.478;5.710;2022-09-27T01:39:05;9.45;;;1.30;;
45338;SDS011;31071;51.478;5.710;2022-09-27T01:44:40;6.95;;;1.30;;
45338;SDS011;31071;51.478;5.710;2022-09-27T01:47:19;6.05;;;1.45;;
45338;SDS011;31071;51.478;5.710;2022-09-27T01:50:03;9.27;;;1.58;;
45338;SDS011;31071;51.478;5.710;2022-09-27T01:52:58;9.27;;;1.38;;
45338;SDS011;31071;51.478;5.710;2022-09-27T01:55:31;4.47;;;0.98;;
45338;SDS011;31071;51.478;5.710;2022-09-27T02:00:54;5.82;;;1.05;;
45338;SDS011;31071;51.478;5.710;2022-09-27T02:03:21;6.72;;;0.95;;
45338;SDS011;31071;51.478;5.710;2022-09-27T02:05:58;7.20;;;1.08;;
45338;SDS011;31071;51.478;5.710;2022-09-27T02:11:00;5.22;;;0.90;;
45338;SDS011;31071;51.478;5.710;2022-09-27T02:13:37;4.80;;;1.10;;
45338;SDS011;31071;51.478;5.710;2022-09-27T02:18:48;5.82;;;1.73;;
45338;SDS011;31071;51.478;5.710;2022-09-27T02:21:19;8.55;;;1.50;;
45338;SDS011;31071;51.478;5.710;2022-09-27T02:23:50;8.18;;;1.63;;
45338;SDS011;31071;51.478;5.710;2022-09-27T02:26:30;8.55;;;0.98;;
45338;SDS011;31071;51.478;5.710;2022-09-27T02:31:41;5.07;;;1.05;;
45338;SDS011;31071;51.478;5.710;2022-09-27T02:34:14;4.72;;;1.20;;
45338;SDS011;31071;51.478;5.710;2022-09-27T02:36:46;8.90;;;1.52;;
45338;SDS011;31071;51.478;5.710;2022-09-27T02:39:12;7.40;;;1.15;;
45338;SDS011;31071;51.478;5.710;2022-09-27T02:41:38;4.47;;;1.40;;
45338;SDS011;31071;51.478;5.710;2022-09-27T02:44:04;8.55;;;1.52;;
45338;SDS011;31071;51.478;5.710;2022-09-27T02:46:46;4.35;;;0.77;;
45338;SDS011;31071;51.478;5.710;2022-09-27T02:49:39;5.65;;;1.00;;
45338;SDS011;31071;51.478;5.710;2022-09-27T02:52:28;6.75;;;1.00;;
45338;SDS011;31071;51.478;5.710;2022-09-27T02:55:05;8.38;;;1.33;;
45338;SDS011;31071;51.478;5.710;2022-09-27T03:00:15;6.45;;;1.65;;
45338;SDS011;31071;51.478;5.710;2022-09-27T03:05:46;6.50;;;0.98;;
45338;SDS011;31071;51.478;5.710;2022-09-27T03:08:16;4.88;;;1.10;;
45338;SDS011;31071;51.478;5.710;2022-09-27T03:10:42;5.80;;;0.93;;
45338;SDS011;31071;51.478;5.710;2022-09-27T03:13:09;6.78;;;0.93;;
45338;SDS011;31071;51.478;5.710;2022-09-27T03:15:34;2.85;;;0.70;;
45338;SDS011;31071;51.478;5.710;2022-09-27T03:18:00;5.82;;;0.80;;
45338;SDS011;31071;51.478;5.710;2022-09-27T03:20:26;6.20;;;0.88;;
45338;SDS011;31071;51.478;5.710;2022-09-27T03:22:53;7.47;;;1.30;;
45338;SDS011;31071;51.478;5.710;2022-09-27T03:25:20;12.60;;;1.48;;
45338;SDS011;31071;51.478;5.710;2022-09-27T03:27:47;4.32;;;0.95;;
45338;SDS011;31071;51.478;5.710;2022-09-27T03:30:13;5.25;;;1.13;;
45338;SDS011;31071;51.478;5.710;2022-09-27T03:32:43;9.40;;;1.00;;
45338;SDS011;31071;51.478;5.710;2022-09-27T03:35:10;9.75;;;0.93;;
45338;SDS011;31071;51.478;5.710;2022-09-27T03:37:37;3.85;;;0.80;;
45338;SDS011;31071;51.478;5.710;2022-09-27T03:40:04;3.50;;;0.93;;
45338;SDS011;31071;51.478;5.710;2022-09-27T03:42:30;5.57;;;1.05;;
45338;SDS011;31071;51.478;5.710;2022-09-27T03:44:56;6.20;;;1.25;;
45338;SDS011;31071;51.478;5.710;2022-09-27T03:47:23;5.10;;;1.10;;
45338;SDS011;31071;51.478;5.710;2022-09-27T03:49:49;6.43;;;1.42;;
45338;SDS011;31071;51.478;5.710;2022-09-27T03:52:14;7.00;;;1.27;;
45338;SDS011;31071;51.478;5.710;2022-09-27T03:54:42;6.25;;;1.30;;
45338;SDS011;31071;51.478;5.710;2022-09-27T03:57:08;7.38;;;1.10;;
45338;SDS011;31071;51.478;5.710;2022-09-27T03:59:33;10.00;;;1.75;;
45338;SDS011;31071;51.478;5.710;2022-09-27T04:01:59;5.30;;;1.27;;
45338;SDS011;31071;51.478;5.710;2022-09-27T04:04:24;5.22;;;0.93;;
45338;SDS011;31071;51.478;5.710;2022-09-27T04:06:50;7.10;;;1.20;;
45338;SDS011;31071;51.478;5.710;2022-09-27T04:09:15;8.82;;;1.05;;
45338;SDS011;31071;51.478;5.710;2022-09-27T04:11:41;2.65;;;1.13;;
45338;SDS011;31071;51.478;5.710;2022-09-27T04:14:06;5.32;;;1.30;;
45338;SDS011;31071;51.478;5.710;2022-09-27T04:16:33;10.48;;;1.48;;
45338;SDS011;31071;51.478;5.710;2022-09-27T04:18:58;6.97;;;1.30;;
45338;SDS011;31071;51.478;5.710;2022-09-27T04:21:25;6.93;;;1.40;;
45338;SDS011;31071;51.478;5.710;2022-09-27T04:23:51;5.55;;;1.17;;
45338;SDS011;31071;51.478;5.710;2022-09-27T04:26:16;7.30;;;1.38;;
45338;SDS011;31071;51.478;5.710;2022-09-27T04:28:42;6.47;;;1.55;;
45338;SDS011;31071;51.478;5.710;2022-09-27T04:31:08;8.48;;;1.20;;
45338;SDS011;31071;51.478;5.710;2022-09-27T04:33:34;6.65;;;1.52;;
45338;SDS011;31071;51.478;5.710;2022-09-27T04:35:59;5.47;;;1.05;;
45338;SDS011;31071;51.478;5.710;2022-09-27T04:38:43;6.63;;;1.20;;
45338;SDS011;31071;51.478;5.710;2022-09-27T04:41:09;9.45;;;1.40;;
45338;SDS011;31071;51.478;5.710;2022-09-27T04:43:34;7.03;;;1.00;;
45338;SDS011;31071;51.478;5.710;2022-09-27T04:46:00;3.85;;;1.30;;
45338;SDS011;31071;51.478;5.710;2022-09-27T04:48:25;4.07;;;0.93;;
45338;SDS011;31071;51.478;5.710;2022-09-27T04:50:54;4.25;;;0.80;;
45338;SDS011;31071;51.478;5.710;2022-09-27T04:53:23;4.03;;;1.10;;
45338;SDS011;31071;51.478;5.710;2022-09-27T04:55:51;7.80;;;0.95;;
45338;SDS011;31071;51.478;5.710;2022-09-27T04:58:17;6.28;;;0.98;;
45338;SDS011;31071;51.478;5.710;2022-09-27T05:00:42;3.83;;;1.02;;
45338;SDS011;31071;51.478;5.710;2022-09-27T05:03:08;3.28;;;0.98;;
45338;SDS011;31071;51.478;5.710;2022-09-27T05:05:33;5.78;;;0.90;;
45338;SDS011;31071;51.478;5.710;2022-09-27T05:08:01;4.45;;;0.95;;
45338;SDS011;31071;51.478;5.710;2022-09-27T05:10:27;4.20;;;0.98;;
45338;SDS011;31071;51.478;5.710;2022-09-27T05:12:52;6.78;;;0.73;;
45338;SDS011;31071;51.478;5.710;2022-09-27T05:15:18;3.42;;;0.60;;
45338;SDS011;31071;51.478;5.710;2022-09-27T05:17:44;7.20;;;1.00;;
45338;SDS011;31071;51.478;5.710;2022-09-27T05:20:10;4.20;;;0.90;;
45338;SDS011;31071;51.478;5.710;2022-09-27T05:22:35;6.15;;;0.93;;
45338;SDS011;31071;51.478;5.710;2022-09-27T05:25:02;7.80;;;1.30;;
45338;SDS011;31071;51.478;5.710;2022-09-27T05:27:28;2.50;;;1.25;;
45338;SDS011;31071;51.478;5.710;2022-09-27T05:29:55;6.05;;;1.42;;
45338;SDS011;31071;51.478;5.710;2022-09-27T05:32:20;2.47;;;0.65;;
45338;SDS011;31071;51.478;5.710;2022-09-27T05:34:47;6.90;;;1.10;;
45338;SDS011;31071;51.478;5.710;2022-09-27T05:37:13;5.22;;;0.95;;
45338;SDS011;31071;51.478;5.710;2022-09-27T05:39:38;3.88;;;0.80;;
45338;SDS011;31071;51.478;5.710;2022-09-27T05:42:04;3.88;;;0.80;;
45338;SDS011;31071;51.478;5.710;2022-09-27T05:44:32;4.30;;;1.13;;
45338;SDS011;31071;51.478;5.710;2022-09-27T05:46:59;4.63;;;0.77;;
45338;SDS011;31071;51.478;5.710;2022-09-27T05:49:29;2.90;;;0.68;;
45338;SDS011;31071;51.478;5.710;2022-09-27T05:51:54;1.70;;;0.82;;
45338;SDS011;31071;51.478;5.710;2022-09-27T05:54:20;2.38;;;0.70;;
45338;SDS011;31071;51.478;5.710;2022-09-27T05:56:45;3.03;;;0.60;;
45338;SDS011;31071;51.478;5.710;2022-09-27T05:59:11;1.83;;;0.77;;
45338;SDS011;31071;51.478;5.710;2022-09-27T06:01:36;3.22;;;0.60;;
45338;SDS011;31071;51.478;5.710;2022-09-27T06:04:02;4.50;;;0.73;;
45338;SDS011;31071;51.478;5.710;2022-09-27T06:06:30;3.05;;;0.70;;
45338;SDS011;31071;51.478;5.710;2022-09-27T06:08:58;2.55;;;0.80;;
45338;SDS011;31071;51.478;5.710;2022-09-27T06:11:25;4.60;;;0.50;;
45338;SDS011;31071;51.478;5.710;2022-09-27T06:13:51;1.77;;;0.82;;
45338;SDS011;31071;51.478;5.710;2022-09-27T06:16:17;3.65;;;0.98;;
45338;SDS011;31071;51.478;5.710;2022-09-27T06:18:42;2.63;;;0.75;;
45338;SDS011;31071;51.478;5.710;2022-09-27T06:21:08;3.53;;;0.63;;
45338;SDS011;31071;51.478;5.710;2022-09-27T06:23:33;4.63;;;1.10;;
45338;SDS011;31071;51.478;5.710;2022-09-27T06:26:00;3.08;;;0.93;;
45338;SDS011;31071;51.478;5.710;2022-09-27T06:28:30;1.80;;;0.80;;
45338;SDS011;31071;51.478;5.710;2022-09-27T06:30:56;4.07;;;0.85;;
45338;SDS011;31071;51.478;5.710;2022-09-27T06:33:25;4.97;;;0.90;;
45338;SDS011;31071;51.478;5.710;2022-09-27T06:35:52;3.30;;;0.90;;
45338;SDS011;31071;51.478;5.710;2022-09-27T06:38:18;1.48;;;0.70;;
45338;SDS011;31071;51.478;5.710;2022-09-27T06:40:45;3.47;;;0.80;;
45338;SDS011;31071;51.478;5.710;2022-09-27T06:43:12;2.45;;;0.85;;
45338;SDS011;31071;51.478;5.710;2022-09-27T06:45:39;4.35;;;1.20;;
45338;SDS011;31071;51.478;5.710;2022-09-27T06:48:07;4.10;;;1.20;;
45338;SDS011;31071;51.478;5.710;2022-09-27T06:50:35;3.65;;;1.17;;
45338;SDS011;31071;51.478;5.710;2022-09-27T06:53:03;2.35;;;1.10;;
45338;SDS011;31071;51.478;5.710;2022-09-27T06:55:29;3.05;;;1.15;;
45338;SDS011;31071;51.478;5.710;2022-09-27T06:57:56;3.88;;;1.40;;
45338;SDS011;31071;51.478;5.710;2022-09-27T07:00:41;3.92;;;1.40;;
45338;SDS011;31071;51.478;5.710;2022-09-27T07:03:07;3.05;;;1.80;;
45338;SDS011;31071;51.478;5.710;2022-09-27T07:05:35;2.45;;;1.90;;
45338;SDS011;31071;51.478;5.710;2022-09-27T07:08:02;5.30;;;2.10;;
45338;SDS011;31071;51.478;5.710;2022-09-27T07:10:30;5.85;;;2.97;;
45338;SDS011;31071;51.478;5.710;2022-09-27T07:13:07;4.70;;;2.63;;
45338;SDS011;31071;51.478;5.710;2022-09-27T07:15:35;6.50;;;2.50;;
45338;SDS011;31071;51.478;5.710;2022-09-27T07:18:05;6.07;;;1.90;;
45338;SDS011;31071;51.478;5.710;2022-09-27T07:20:32;8.35;;;2.60;;
45338;SDS011;31071;51.478;5.710;2022-09-27T07:23:01;5.63;;;2.35;;
45338;SDS011;31071;51.478;5.710;2022-09-27T07:25:27;2.70;;;2.35;;
45338;SDS011;31071;51.478;5.710;2022-09-27T07:27:54;3.88;;;2.10;;
45338;SDS011;31071;51.478;5.710;2022-09-27T07:30:25;5.47;;;2.67;;
45338;SDS011;31071;51.478;5.710;2022-09-27T07:32:55;3.75;;;2.45;;
45338;SDS011;31071;51.478;5.710;2022-09-27T07:35:22;6.18;;;2.65;;
45338;SDS011;31071;51.478;5.710;2022-09-27T07:37:48;7.20;;;3.13;;
45338;SDS011;31071;51.478;5.710;2022-09-27T07:40:13;7.22;;;2.65;;
45338;SDS011;31071;51.478;5.710;2022-09-27T07:42:39;6.15;;;2.42;;
45338;SDS011;31071;51.478;5.710;2022-09-27T07:45:08;3.35;;;2.42;;
45338;SDS011;31071;51.478;5.710;2022-09-27T07:47:36;5.57;;;2.63;;
45338;SDS011;31071;51.478;5.710;2022-09-27T07:50:06;7.30;;;3.17;;
45338;SDS011;31071;51.478;5.710;2022-09-27T07:52:37;5.28;;;3.15;;
45338;SDS011;31071;51.478;5.710;2022-09-27T07:55:07;4.72;;;3.80;;
45338;SDS011;31071;51.478;5.710;2022-09-27T07:57:35;7.18;;;3.47;;
45338;SDS011;31071;51.478;5.710;2022-09-27T08:00:05;7.07;;;4.22;;
45338;SDS011;31071;51.478;5.710;2022-09-27T08:02:32;5.30;;;4.03;;
45338;SDS011;31071;51.478;5.710;2022-09-27T08:04:58;6.57;;;4.55;;
45338;SDS011;31071;51.478;5.710;2022-09-27T08:07:24;7.25;;;4.63;;
45338;SDS011;31071;51.478;5.710;2022-09-27T08:09:50;6.80;;;4.47;;
45338;SDS011;31071;51.478;5.710;2022-09-27T08:12:16;8.45;;;5.10;;
45338;SDS011;31071;51.478;5.710;2022-09-27T08:14:42;5.38;;;4.85;;
45338;SDS011;31071;51.478;5.710;2022-09-27T08:17:11;7.15;;;5.15;;
45338;SDS011;31071;51.478;5.710;2022-09-27T08:19:37;9.98;;;5.88;;
45338;SDS011;31071;51.478;5.710;2022-09-27T08:22:03;7.18;;;5.88;;
45338;SDS011;31071;51.478;5.710;2022-09-27T08:24:29;9.50;;;5.28;;
45338;SDS011;31071;51.478;5.710;2022-09-27T08:26:54;9.65;;;5.70;;
45338;SDS011;31071;51.478;5.710;2022-09-27T08:29:20;7.05;;;5.07;;
45338;SDS011;31071;51.478;5.710;2022-09-27T08:31:45;10.43;;;5.80;;
45338;SDS011;31071;51.478;5.710;2022-09-27T08:34:11;8.77;;;5.35;;
45338;SDS011;31071;51.478;5.710;2022-09-27T08:36:36;9.20;;;5.20;;
45338;SDS011;31071;51.478;5.710;2022-09-27T08:39:02;10.73;;;6.05;;
45338;SDS011;31071;51.478;5.710;2022-09-27T08:47:38;8.05;;;5.93;;
45338;SDS011;31071;51.478;5.710;2022-09-27T08:52:54;8.57;;;5.80;;
45338;SDS011;31071;51.478;5.710;2022-09-27T08:55:44;9.40;;;6.65;;
45338;SDS011;31071;51.478;5.710;2022-09-27T08:58:20;11.77;;;8.73;;
45338;SDS011;31071;51.478;5.710;2022-09-27T09:00:50;8.10;;;6.47;;
45338;SDS011;31071;51.478;5.710;2022-09-27T09:03:19;8.55;;;6.90;;
45338;SDS011;31071;51.478;5.710;2022-09-27T09:11:15;10.80;;;7.07;;
45338;SDS011;31071;51.478;5.710;2022-09-27T09:20:51;14.65;;;9.38;;
45338;SDS011;31071;51.478;5.710;2022-09-27T09:29:16;14.20;;;10.35;;
45338;SDS011;31071;51.478;5.710;2022-09-27T09:31:57;16.70;;;11.27;;
45338;SDS011;31071;51.478;5.710;2022-09-27T09:34:50;16.90;;;11.63;;
45338;SDS011;31071;51.478;5.710;2022-09-27T09:37:34;19.80;;;12.77;;
45338;SDS011;31071;51.478;5.710;2022-09-27T09:40:06;18.55;;;12.90;;
45338;SDS011;31071;51.478;5.710;2022-09-27T09:43:13;15.75;;;11.40;;
45338;SDS011;31071;51.478;5.710;2022-09-27T09:45:50;16.27;;;11.77;;
45338;SDS011;31071;51.478;5.710;2022-09-27T09:48:48;15.25;;;11.93;;
45338;SDS011;31071;51.478;5.710;2022-09-27T09:51:15;17.13;;;12.18;;
45338;SDS011;31071;51.478;5.710;2022-09-27T09:54:03;16.25;;;12.15;;
45338;SDS011;31071;51.478;5.710;2022-09-27T10:02:25;19.15;;;12.55;;
45338;SDS011;31071;51.478;5.710;2022-09-27T10:05:02;18.92;;;12.77;;
45338;SDS011;31071;51.478;5.710;2022-09-27T10:07:29;19.02;;;12.45;;
45338;SDS011;31071;51.478;5.710;2022-09-27T10:09:59;18.58;;;13.02;;
45338;SDS011;31071;51.478;5.710;2022-09-27T10:12:26;18.38;;;13.93;;
45338;SDS011;31071;51.478;5.710;2022-09-27T10:14:52;23.25;;;13.98;;
45338;SDS011;31071;51.478;5.710;2022-09-27T10:17:22;22.70;;;15.07;;
45338;SDS011;31071;51.478;5.710;2022-09-27T10:19:49;20.25;;;15.15;;
45338;SDS011;31071;51.478;5.710;2022-09-27T10:22:21;20.10;;;14.10;;
45338;SDS011;31071;51.478;5.710;2022-09-27T10:24:57;20.55;;;13.85;;
45338;SDS011;31071;51.478;5.710;2022-09-27T10:27:25;20.10;;;12.18;;
45338;SDS011;31071;51.478;5.710;2022-09-27T10:29:55;12.90;;;9.93;;
45338;SDS011;31071;51.478;5.710;2022-09-27T10:32:24;12.88;;;9.93;;
45338;SDS011;31071;51.478;5.710;2022-09-27T10:34:55;11.98;;;8.80;;
45338;SDS011;31071;51.478;5.710;2022-09-27T10:37:41;11.23;;;7.72;;
45338;SDS011;31071;51.478;5.710;2022-09-27T10:40:24;12.98;;;7.88;;
45338;SDS011;31071;51.478;5.710;2022-09-27T10:42:54;10.18;;;7.38;;
45338;SDS011;31071;51.478;5.710;2022-09-27T10:45:30;8.32;;;6.15;;
45338;SDS011;31071;51.478;5.710;2022-09-27T10:48:08;7.70;;;6.00;;
45338;SDS011;31071;51.478;5.710;2022-09-27T10:50:53;8.93;;;6.28;;
45338;SDS011;31071;51.478;5.710;2022-09-27T10:53:25;6.25;;;5.60;;
45338;SDS011;31071;51.478;5.710;2022-09-27T10:55:53;8.15;;;4.85;;
45338;SDS011;31071;51.478;5.710;2022-09-27T10:58:30;8.23;;;4.70;;
45338;SDS011;31071;51.478;5.710;2022-09-27T11:00:59;4.53;;;3.15;;
45338;SDS011;31071;51.478;5.710;2022-09-27T11:03:28;5.53;;;2.83;;
45338;SDS011;31071;51.478;5.710;2022-09-27T11:05:55;4.35;;;2.38;;
45338;SDS011;31071;51.478;5.710;2022-09-27T11:08:30;4.15;;;2.03;;
45338;SDS011;31071;51.478;5.710;2022-09-27T11:13:27;4.30;;;1.58;;
45338;SDS011;31071;51.478;5.710;2022-09-27T11:24:11;1.70;;;0.80;;
45338;SDS011;31071;51.478;5.710;2022-09-27T11:32:36;1.13;;;0.68;;
45338;SDS011;31071;51.478;5.710;2022-09-27T11:46:28;1.92;;;0.77;;
45338;SDS011;31071;51.478;5.710;2022-09-27T11:56:55;1.30;;;0.63;;
45338;SDS011;31071;51.478;5.710;2022-09-27T11:59:32;1.45;;;0.60;;
45338;SDS011;31071;51.478;5.710;2022-09-27T12:10:13;1.85;;;0.70;;
45338;SDS011;31071;51.478;5.710;2022-09-27T12:12:41;7.75;;;0.75;;
45338;SDS011;31071;51.478;5.710;2022-09-27T12:15:16;1.98;;;0.65;;
45338;SDS011;31071;51.478;5.710;2022-09-27T12:17:48;0.55;;;0.50;;
45338;SDS011;31071;51.478;5.710;2022-09-27T12:20:23;2.60;;;0.60;;
45338;SDS011;31071;51.478;5.710;2022-09-27T12:25:29;1.58;;;0.52;;
45338;SDS011;31071;51.478;5.710;2022-09-27T12:28:09;1.88;;;0.50;;
45338;SDS011;31071;51.478;5.710;2022-09-27T12:30:43;2.72;;;0.40;;
45338;SDS011;31071;51.478;5.710;2022-09-27T12:35:59;0.70;;;0.68;;
45338;SDS011;31071;51.478;5.710;2022-09-27T12:38:52;1.60;;;0.40;;
45338;SDS011;31071;51.478;5.710;2022-09-27T12:41:38;2.38;;;0.50;;
45338;SDS011;31071;51.478;5.710;2022-09-27T12:44:10;0.82;;;0.40;;
45338;SDS011;31071;51.478;5.710;2022-09-27T12:46:43;1.17;;;0.28;;
45338;SDS011;31071;51.478;5.710;2022-09-27T12:52:11;1.33;;;0.50;;
45338;SDS011;31071;51.478;5.710;2022-09-27T12:54:51;0.47;;;0.30;;
45338;SDS011;31071;51.478;5.710;2022-09-27T13:00:30;2.45;;;0.55;;
45338;SDS011;31071;51.478;5.710;2022-09-27T13:03:25;3.75;;;0.40;;
45338;SDS011;31071;51.478;5.710;2022-09-27T13:14:19;3.55;;;0.68;;
45338;SDS011;31071;51.478;5.710;2022-09-27T13:16:48;4.35;;;0.80;;
45338;SDS011;31071;51.478;5.710;2022-09-27T13:19:48;3.13;;;0.70;;
45338;SDS011;31071;51.478;5.710;2022-09-27T13:22:34;1.27;;;0.50;;
45338;SDS011;31071;51.478;5.710;2022-09-27T13:25:02;2.58;;;0.65;;
45338;SDS011;31071;51.478;5.710;2022-09-27T13:28:00;2.38;;;0.88;;
45338;SDS011;31071;51.478;5.710;2022-09-27T13:30:42;2.00;;;0.80;;
45338;SDS011;31071;51.478;5.710;2022-09-27T13:35:33;2.17;;;0.70;;
45338;SDS011;31071;51.478;5.710;2022-09-27T13:38:00;2.38;;;0.90;;
45338;SDS011;31071;51.478;5.710;2022-09-27T13:40:30;1.30;;;0.70;;
45338;SDS011;31071;51.478;5.710;2022-09-27T13:48:08;2.45;;;0.88;;
45338;SDS011;31071;51.478;5.710;2022-09-27T13:53:16;2.38;;;0.90;;
45338;SDS011;31071;51.478;5.710;2022-09-27T13:56:01;2.20;;;0.98;;
45338;SDS011;31071;51.478;5.710;2022-09-27T13:58:41;3.17;;;1.27;;
45338;SDS011;31071;51.478;5.710;2022-09-27T14:01:27;3.90;;;1.15;;
45338;SDS011;31071;51.478;5.710;2022-09-27T14:04:09;4.13;;;1.30;;
45338;SDS011;31071;51.478;5.710;2022-09-27T14:06:47;4.88;;;1.40;;
45338;SDS011;31071;51.478;5.710;2022-09-27T14:09:20;3.70;;;1.40;;
45338;SDS011;31071;51.478;5.710;2022-09-27T14:12:02;3.95;;;1.50;;
45338;SDS011;31071;51.478;5.710;2022-09-27T14:14:50;5.80;;;1.30;;
45338;SDS011;31071;51.478;5.710;2022-09-27T14:17:22;5.63;;;1.38;;
45338;SDS011;31071;51.478;5.710;2022-09-27T14:19:49;3.83;;;1.30;;
45338;SDS011;31071;51.478;5.710;2022-09-27T14:22:22;3.60;;;0.90;;
45338;SDS011;31071;51.478;5.710;2022-09-27T14:24:49;4.75;;;1.30;;
45338;SDS011;31071;51.478;5.710;2022-09-27T14:27:17;4.78;;;1.20;;
45338;SDS011;31071;51.478;5.710;2022-09-27T14:29:51;2.15;;;1.20;;
45338;SDS011;31071;51.478;5.710;2022-09-27T14:32:25;5.43;;;1.63;;
45338;SDS011;31071;51.478;5.710;2022-09-27T14:38:10;3.97;;;1.48;;
45338;SDS011;31071;51.478;5.710;2022-09-27T14:40:39;5.07;;;2.25;;
45338;SDS011;31071;51.478;5.710;2022-09-27T14:43:17;7.70;;;2.65;;
45338;SDS011;31071;51.478;5.710;2022-09-27T14:45:57;3.63;;;2.25;;
45338;SDS011;31071;51.478;5.710;2022-09-27T14:48:28;6.13;;;1.90;;
45338;SDS011;31071;51.478;5.710;2022-09-27T14:51:00;4.97;;;2.47;;
45338;SDS011;31071;51.478;5.710;2022-09-27T14:53:48;5.97;;;2.65;;
45338;SDS011;31071;51.478;5.710;2022-09-27T14:56:21;2.83;;;2.17;;
45338;SDS011;31071;51.478;5.710;2022-09-27T14:58:52;6.82;;;2.50;;
45338;SDS011;31071;51.478;5.710;2022-09-27T15:01:22;5.72;;;2.90;;
45338;SDS011;31071;51.478;5.710;2022-09-27T15:03:48;6.35;;;2.58;;
45338;SDS011;31071;51.478;5.710;2022-09-27T15:06:17;5.70;;;2.53;;
45338;SDS011;31071;51.478;5.710;2022-09-27T15:08:44;4.78;;;2.30;;
45338;SDS011;31071;51.478;5.710;2022-09-27T15:11:13;6.03;;;2.10;;
45338;SDS011;31071;51.478;5.710;2022-09-27T15:13:39;4.82;;;2.75;;
45338;SDS011;31071;51.478;5.710;2022-09-27T15:16:07;4.35;;;2.58;;
45338;SDS011;31071;51.478;5.710;2022-09-27T15:21:03;3.90;;;2.10;;
45338;SDS011;31071;51.478;5.710;2022-09-27T15:23:34;5.32;;;2.38;;
45338;SDS011;31071;51.478;5.710;2022-09-27T15:26:13;8.45;;;2.08;;
45338;SDS011;31071;51.478;5.710;2022-09-27T15:28:50;9.35;;;1.90;;
45338;SDS011;31071;51.478;5.710;2022-09-27T15:31:17;5.72;;;1.67;;
45338;SDS011;31071;51.478;5.710;2022-09-27T15:33:56;6.10;;;1.70;;
45338;SDS011;31071;51.478;5.710;2022-09-27T15:36:49;3.53;;;1.50;;
45338;SDS011;31071;51.478;5.710;2022-09-27T15:39:34;4.82;;;1.77;;
45338;SDS011;31071;51.478;5.710;2022-09-27T15:47:04;5.15;;;1.40;;
45338;SDS011;31071;51.478;5.710;2022-09-27T15:49:30;6.20;;;1.63;;
45338;SDS011;31071;51.478;5.710;2022-09-27T15:52:00;3.10;;;1.50;;
45338;SDS011;31071;51.478;5.710;2022-09-27T15:54:27;4.28;;;1.60;;
45338;SDS011;31071;51.478;5.710;2022-09-27T15:56:55;8.65;;;2.08;;
45338;SDS011;31071;51.478;5.710;2022-09-27T15:59:25;9.82;;;2.08;;
45338;SDS011;31071;51.478;5.710;2022-09-27T16:01:55;3.92;;;1.60;;
45338;SDS011;31071;51.478;5.710;2022-09-27T16:04:22;4.05;;;1.77;;
45338;SDS011;31071;51.478;5.710;2022-09-27T16:06:48;5.93;;;1.88;;
45338;SDS011;31071;51.478;5.710;2022-09-27T16:09:18;3.67;;;1.40;;
45338;SDS011;31071;51.478;5.710;2022-09-27T16:11:45;5.25;;;1.92;;
45338;SDS011;31071;51.478;5.710;2022-09-27T16:14:11;5.20;;;1.80;;
45338;SDS011;31071;51.478;5.710;2022-09-27T16:16:40;4.72;;;2.00;;
45338;SDS011;31071;51.478;5.710;2022-09-27T16:19:10;4.88;;;2.00;;
45338;SDS011;31071;51.478;5.710;2022-09-27T16:21:36;5.07;;;2.08;;
45338;SDS011;31071;51.478;5.710;2022-09-27T16:24:01;6.18;;;2.45;;
45338;SDS011;31071;51.478;5.710;2022-09-27T16:26:27;7.53;;;2.42;;
45338;SDS011;31071;51.478;5.710;2022-09-27T16:28:53;4.05;;;2.22;;
45338;SDS011;31071;51.478;5.710;2022-09-27T16:31:18;4.80;;;2.45;;
45338;SDS011;31071;51.478;5.710;2022-09-27T16:33:46;43.30;;;29.88;;
45338;SDS011;31071;51.478;5.710;2022-09-27T16:36:14;8.00;;;2.60;;
45338;SDS011;31071;51.478;5.710;2022-09-27T16:38:43;4.22;;;2.35;;
45338;SDS011;31071;51.478;5.710;2022-09-27T16:41:12;9.73;;;2.92;;
45338;SDS011;31071;51.478;5.710;2022-09-27T16:43:38;5.28;;;2.47;;
45338;SDS011;31071;51.478;5.710;2022-09-27T16:46:07;6.38;;;2.55;;
45338;SDS011;31071;51.478;5.710;2022-09-27T16:48:36;6.95;;;2.60;;
45338;SDS011;31071;51.478;5.710;2022-09-27T16:51:03;6.22;;;2.80;;
45338;SDS011;31071;51.478;5.710;2022-09-27T16:53:48;6.90;;;2.88;;
45338;SDS011;31071;51.478;5.710;2022-09-27T16:56:13;5.95;;;2.88;;
45338;SDS011;31071;51.478;5.710;2022-09-27T16:58:39;4.22;;;2.88;;
45338;SDS011;31071;51.478;5.710;2022-09-27T17:01:04;7.72;;;3.28;;
45338;SDS011;31071;51.478;5.710;2022-09-27T17:03:31;6.40;;;2.70;;
45338;SDS011;31071;51.478;5.710;2022-09-27T17:06:00;4.82;;;2.40;;
45338;SDS011;31071;51.478;5.710;2022-09-27T17:08:28;4.32;;;2.10;;
45338;SDS011;31071;51.478;5.710;2022-09-27T17:10:54;5.70;;;1.98;;
45338;SDS011;31071;51.478;5.710;2022-09-27T17:13:20;4.18;;;1.95;;
45338;SDS011;31071;51.478;5.710;2022-09-27T17:15:46;3.72;;;1.80;;
45338;SDS011;31071;51.478;5.710;2022-09-27T17:18:12;6.35;;;1.92;;
45338;SDS011;31071;51.478;5.710;2022-09-27T17:20:38;5.70;;;2.35;;
45338;SDS011;31071;51.478;5.710;2022-09-27T17:23:04;5.22;;;3.78;;
45338;SDS011;31071;51.478;5.710;2022-09-27T17:25:30;5.07;;;2.22;;
45338;SDS011;31071;51.478;5.710;2022-09-27T17:27:56;4.45;;;2.28;;
45338;SDS011;31071;51.478;5.710;2022-09-27T17:30:22;6.18;;;2.53;;
45338;SDS011;31071;51.478;5.710;2022-09-27T17:32:48;6.32;;;2.67;;